Time;durP1;ratioP1;P1;durP2;ratioP2;P2;SDS_P1;SDS_P2;PMS_P1;PMS_P2;Temp;Humidity;BMP_temperature;BMP_pressure;BME280_temperature;BME280_humidity;BME280_pressure;Samples;Min_cycle;Max_cycle;Signal;HPM_P1;HPM_P2
2021/06/23 00:01:13;;;;;;;4.45;4.13;;;16.30;99.90;;;;;;4857362;29;20061;-80
2021/06/23 00:04:10;;;;;;;;;;;;;;;;;;;;;
2021/06/23 00:07:33;;;;;;;3.38;3.10;;;16.20;99.90;;;;;;4870343;29;20040;-81
2021/06/23 00:10:07;;;;;;;4.70;3.83;;;16.30;99.90;;;;;;4844525;29;20577;-83
2021/06/23 00:13:20;;;;;;;3.58;3.28;;;16.20;99.90;;;;;;4827329;29;20053;-84
2021/06/23 00:16:22;;;;;;;3.33;3.03;;;16.20;99.90;;;;;;4825682;29;20077;-82
2021/06/23 00:19:20;;;;;;;2.90;2.70;;;16.30;99.90;;;;;;4865706;29;20042;-83
2021/06/23 00:23:08;;;;;;;1.88;1.77;;;16.20;99.90;;;;;;4848945;29;20062;-83
2021/06/23 00:26:25;;;;;;;2.10;1.90;;;16.10;99.90;;;;;;4808772;29;20043;-84
2021/06/23 00:28:53;;;;;;;2.05;1.95;;;16.10;99.90;;;;;;4823555;29;20065;-84
2021/06/23 00:31:21;;;;;;;2.95;2.75;;;16.10;99.90;;;;;;4806876;29;20065;-84
2021/06/23 00:33:54;;;;;;;2.10;2.00;;;16.10;99.90;;;;;;4790058;29;20046;-83
2021/06/23 00:36:22;;;;;;;1.98;1.83;;;16.00;99.90;;;;;;4792576;29;20460;-85
2021/06/23 00:38:50;;;;;;;3.22;2.78;;;16.00;99.90;;;;;;4806602;29;20050;-84
2021/06/23 00:41:19;;;;;;;2.60;2.40;;;16.00;99.90;;;;;;4865820;29;20048;-84
2021/06/23 00:43:57;;;;;;;3.20;2.42;;;16.00;99.90;;;;;;4869941;29;20492;-84
2021/06/23 00:46:28;;;;;;;6.32;3.05;;;15.90;99.90;;;;;;4842705;29;20050;-85
2021/06/23 00:49:19;;;;;;;3.35;2.97;;;15.90;99.90;;;;;;4859551;29;20061;-83
2021/06/23 00:53:12;;;;;;;3.15;2.95;;;15.90;99.90;;;;;;4857930;29;20421;-84
2021/06/23 00:57:10;;;;;;;2.25;2.05;;;16.00;99.90;;;;;;4865396;29;20054;-84
2021/06/23 01:00:07;;;;;;;1.40;1.30;;;15.90;99.90;;;;;;4867302;29;20547;-83
2021/06/23 01:02:39;;;;;;;2.20;2.00;;;15.90;99.90;;;;;;4836674;29;20056;-84
2021/06/23 01:05:29;;;;;;;1.13;1.10;;;15.80;99.90;;;;;;4830414;29;20053;-85
2021/06/23 01:08:00;;;;;;;1.10;1.00;;;15.80;99.90;;;;;;4825806;29;20053;-84
2021/06/23 01:10:38;;;;;;;1.42;1.23;;;15.80;99.90;;;;;;4845844;29;20061;-84
2021/06/23 01:13:21;;;;;;;1.38;1.25;;;15.70;99.90;;;;;;4858788;29;20052;-83
2021/06/23 01:16:05;;;;;;;;;;;15.70;99.90;;;;;;4828281;29;20049;-84
2021/06/23 01:20:05;;;;;;;2.42;2.22;;;15.70;99.90;;;;;;4816190;29;19951;-83
2021/06/23 01:23:01;;;;;;;1.92;1.83;;;15.70;99.90;;;;;;4818532;29;20050;-84
2021/06/23 01:26:07;;;;;;;4.53;2.13;;;15.70;99.90;;;;;;4809419;29;20041;-84
2021/06/23 01:28:52;;;;;;;1.25;1.05;;;15.70;99.90;;;;;;4776516;29;20058;-83
2021/06/23 01:31:37;;;;;;;1.90;1.80;;;15.70;99.90;;;;;;4789118;29;20058;-84
2021/06/23 01:34:08;;;;;;;1.83;1.55;;;15.70;99.90;;;;;;4804370;29;20062;-84
2021/06/23 01:36:37;;;;;;;1.80;1.60;;;15.70;99.90;;;;;;4825778;29;20487;-85
2021/06/23 01:39:13;;;;;;;2.50;2.00;;;15.70;99.90;;;;;;4859868;29;20057;-84
2021/06/23 01:41:55;;;;;;;1.73;1.60;;;15.70;99.90;;;;;;4862522;29;20063;-85
2021/06/23 01:44:23;;;;;;;1.90;1.45;;;15.70;99.90;;;;;;4876276;29;20088;-85
2021/06/23 01:46:51;;;;;;;2.38;2.17;;;15.70;99.90;;;;;;4876953;29;20541;-85
2021/06/23 01:49:25;;;;;;;2.30;2.00;;;15.70;99.90;;;;;;4866994;29;20053;-84
2021/06/23 01:51:53;;;;;;;3.65;2.50;;;15.70;99.90;;;;;;4874936;29;20068;-84
2021/06/23 01:54:22;;;;;;;2.95;1.98;;;15.70;99.90;;;;;;4877180;29;20049;-85
2021/06/23 01:57:06;;;;;;;2.83;2.42;;;15.80;99.90;;;;;;4860059;29;20061;-86
2021/06/23 01:59:42;;;;;;;2.28;2.10;;;15.80;99.90;;;;;;4856315;29;20404;-85
2021/06/23 02:02:54;;;;;;;4.35;2.92;;;15.80;99.90;;;;;;4856514;29;20045;-86
2021/06/23 02:05:41;;;;;;;6.97;2.72;;;15.80;99.90;;;;;;4841746;29;20050;-86
2021/06/23 02:08:36;;;;;;;3.00;2.80;;;15.90;99.90;;;;;;4857001;29;20423;-86
2021/06/23 02:11:19;;;;;;;5.68;2.95;;;15.90;99.90;;;;;;4856887;29;20058;-85
2021/06/23 02:14:23;;;;;;;2.78;2.58;;;15.90;99.90;;;;;;4841621;29;20060;-84
2021/06/23 02:17:09;;;;;;;3.55;2.83;;;15.90;99.90;;;;;;4857690;29;20064;-86
2021/06/23 02:19:51;;;;;;;4.68;2.95;;;15.90;99.90;;;;;;4842631;29;20057;-86
2021/06/23 02:22:29;;;;;;;5.68;3.65;;;15.90;99.90;;;;;;4841023;29;20049;-85
2021/06/23 02:25:13;;;;;;;5.22;3.67;;;16.00;99.90;;;;;;4834637;29;20436;-86
2021/06/23 02:28:02;;;;;;;3.03;2.72;;;16.00;99.90;;;;;;4860067;29;20057;-85
2021/06/23 02:30:38;;;;;;;6.20;2.90;;;16.00;99.90;;;;;;4845012;29;20046;-85
2021/06/23 02:33:14;;;;;;;5.13;4.60;;;16.10;99.90;;;;;;4845590;29;20081;-86
2021/06/23 02:35:56;;;;;;;5.90;4.55;;;16.10;99.90;;;;;;4846349;29;20054;-86
2021/06/23 02:38:37;;;;;;;3.40;3.13;;;16.10;99.90;;;;;;4843835;29;20053;-86
2021/06/23 02:41:20;;;;;;;3.72;2.95;;;16.00;99.90;;;;;;4844974;29;20045;-86
2021/06/23 02:43:57;;;;;;;4.30;3.50;;;16.00;99.90;;;;;;4842605;29;20046;-85
2021/06/23 02:46:35;;;;;;;3.42;3.13;;;16.00;99.90;;;;;;4866433;29;20058;-85
2021/06/23 02:49:22;;;;;;;4.50;4.05;;;15.90;99.90;;;;;;4855392;29;20057;-85
2021/06/23 02:51:54;;;;;;;4.47;4.18;;;15.90;99.90;;;;;;4856851;29;20064;-85
2021/06/23 02:54:37;;;;;;;7.57;5.63;;;15.90;99.90;;;;;;4856558;29;20060;-85
2021/06/23 02:57:22;;;;;;;4.05;3.05;;;15.90;99.90;;;;;;4873240;29;20061;-85
2021/06/23 02:59:53;;;;;;;4.05;3.70;;;15.80;99.90;;;;;;4845500;29;20065;-84
2021/06/23 03:02:27;;;;;;;4.03;2.95;;;15.90;99.90;;;;;;4844136;29;20057;-85
2021/06/23 03:04:58;;;;;;;3.55;3.17;;;15.90;99.90;;;;;;4859683;29;20053;-85
2021/06/23 03:07:27;;;;;;;5.60;2.97;;;15.90;99.90;;;;;;4859755;29;20050;-85
2021/06/23 03:10:08;;;;;;;4.45;4.05;;;15.90;99.90;;;;;;4859672;29;20053;-85
2021/06/23 03:12:57;;;;;;;4.90;4.30;;;15.90;99.90;;;;;;4861146;29;20068;-85
2021/06/23 03:15:46;;;;;;;2.95;2.72;;;15.90;99.90;;;;;;4856857;29;20060;-85
2021/06/23 03:18:27;;;;;;;3.53;3.22;;;16.00;99.90;;;;;;4843930;29;20049;-85
2021/06/23 03:20:55;;;;;;;3.92;3.45;;;16.00;99.90;;;;;;4843995;29;20080;-85
2021/06/23 03:23:30;;;;;;;3.92;3.65;;;16.00;99.90;;;;;;4874338;29;20049;-85
2021/06/23 03:25:58;;;;;;;4.03;3.63;;;16.00;99.90;;;;;;4874783;29;20053;-85
2021/06/23 03:28:27;;;;;;;3.30;3.00;;;15.90;99.90;;;;;;4860484;29;20065;-85
2021/06/23 03:30:59;;;;;;;4.15;3.75;;;16.00;99.90;;;;;;4859492;29;20052;-85
2021/06/23 03:33:32;;;;;;;5.88;5.38;;;16.00;99.90;;;;;;4844875;29;20516;-85
2021/06/23 03:36:17;;;;;;;3.50;3.25;;;16.00;99.90;;;;;;4860797;29;20068;-84
2021/06/23 03:38:46;;;;;;;3.10;2.85;;;16.00;99.90;;;;;;4862571;29;20064;-85
2021/06/23 03:41:15;;;;;;;3.53;3.22;;;15.90;99.90;;;;;;4877668;29;20041;-85
2021/06/23 03:43:45;;;;;;;6.28;3.60;;;16.00;99.90;;;;;;4879005;29;20053;-84
2021/06/23 03:46:19;;;;;;;3.08;2.80;;;16.00;99.90;;;;;;4876648;29;20052;-85
2021/06/23 03:48:48;;;;;;;4.57;3.67;;;16.00;99.90;;;;;;4844706;29;20064;-85
2021/06/23 03:51:24;;;;;;;4.90;4.43;;;16.00;99.90;;;;;;4843781;29;20054;-84
2021/06/23 03:53:53;;;;;;;4.15;3.55;;;16.00;99.90;;;;;;4859232;29;20515;-85
2021/06/23 03:56:21;;;;;;;10.15;4.13;;;16.00;99.90;;;;;;4858473;29;20511;-85
2021/06/23 03:58:50;;;;;;;6.13;4.40;;;16.00;99.90;;;;;;4859105;29;20080;-84
2021/06/23 04:01:18;;;;;;;4.65;4.25;;;16.00;99.90;;;;;;4858766;29;20078;-85
2021/06/23 04:04:15;;;;;;;4.80;4.00;;;15.90;99.90;;;;;;4859622;29;20042;-85
2021/06/23 04:07:03;;;;;;;3.83;3.53;;;15.90;99.90;;;;;;4838084;29;20086;-84
2021/06/23 04:09:32;;;;;;;5.53;4.53;;;15.90;99.90;;;;;;4844255;29;20052;-84
2021/06/23 04:12:04;;;;;;;5.25;4.75;;;15.90;99.90;;;;;;4858962;29;20069;-84
2021/06/23 04:14:43;;;;;;;5.15;4.50;;;15.90;99.90;;;;;;4874754;29;20053;-84
2021/06/23 04:17:14;;;;;;;5.30;3.47;;;15.90;99.90;;;;;;4861888;29;20176;-84
2021/06/23 04:19:42;;;;;;;7.32;4.40;;;15.90;99.90;;;;;;4840709;29;20050;-84
2021/06/23 04:22:28;;;;;;;3.95;3.53;;;15.90;99.90;;;;;;4833034;29;20513;-84
2021/06/23 04:25:10;;;;;;;5.97;5.15;;;15.90;99.90;;;;;;4827881;29;20061;-85
2021/06/23 04:27:53;;;;;;;5.82;5.22;;;16.00;99.90;;;;;;4860160;29;20068;-85
2021/06/23 04:30:30;;;;;;;5.28;4.78;;;16.00;99.90;;;;;;4855751;29;20060;-85
2021/06/23 04:33:01;;;;;;;4.85;4.38;;;16.00;99.90;;;;;;4859694;29;20053;-83
2021/06/23 04:35:58;;;;;;;5.05;4.55;;;16.00;99.90;;;;;;4857279;29;20049;-85
2021/06/23 04:38:45;;;;;;;7.78;4.93;;;16.10;99.90;;;;;;4857998;29;20407;-86
2021/06/23 04:42:03;;;;;;;5.68;4.80;;;16.10;99.90;;;;;;4879842;29;20045;-87
2021/06/23 04:44:37;;;;;;;7.50;5.88;;;16.20;99.90;;;;;;4864998;29;20058;-85
2021/06/23 04:47:05;;;;;;;4.40;4.00;;;16.20;99.90;;;;;;4857687;29;20431;-83
2021/06/23 04:49:37;;;;;;;6.72;5.57;;;16.20;99.90;;;;;;4852379;29;20064;-84
2021/06/23 04:52:15;;;;;;;5.00;4.60;;;16.20;99.90;;;;;;4858220;29;20499;-85
2021/06/23 04:54:45;;;;;;;6.18;5.68;;;16.30;99.90;;;;;;4842948;29;20419;-85
2021/06/23 04:57:27;;;;;;;5.38;4.78;;;16.30;99.90;;;;;;4847416;29;20057;-88
2021/06/23 05:00:03;;;;;;;5.38;4.88;;;16.30;99.90;;;;;;4821145;29;20094;-87
2021/06/23 05:03:14;;;;;;;6.32;5.72;;;16.30;99.90;;;;;;4812960;29;20054;-86
2021/06/23 05:05:49;;;;;;;5.30;4.55;;;16.30;99.90;;;;;;4819762;29;20097;-86
2021/06/23 05:08:58;;;;;;;6.18;5.10;;;16.30;99.90;;;;;;4819803;29;20058;-87
2021/06/23 05:12:30;;;;;;;6.80;5.65;;;16.30;99.90;;;;;;4818930;29;20046;-84
2021/06/23 05:14:58;;;;;;;6.60;5.72;;;16.40;99.90;;;;;;4819485;29;20050;-87
2021/06/23 05:17:28;;;;;;;6.28;5.68;;;16.30;99.90;;;;;;4836999;29;20053;-86
2021/06/23 05:20:01;;;;;;;9.40;4.55;;;16.40;99.90;;;;;;4833440;29;20089;-85
2021/06/23 05:22:48;;;;;;;9.43;5.65;;;16.40;99.90;;;;;;4831918;29;20038;-85
2021/06/23 05:25:18;;;;;;;8.48;7.65;;;16.40;99.90;;;;;;4816268;29;20050;-84
2021/06/23 05:27:47;;;;;;;10.20;6.78;;;16.40;99.90;;;;;;4838712;29;20143;-83
2021/06/23 05:30:16;;;;;;;8.45;6.15;;;16.50;99.90;;;;;;4831932;29;20388;-83
2021/06/23 05:32:47;;;;;;;9.45;8.00;;;16.60;99.90;;;;;;4858555;29;20049;-85
2021/06/23 05:35:15;;;;;;;13.07;11.73;;;16.60;99.90;;;;;;4848991;29;20074;-83
2021/06/23 05:37:46;;;;;;;10.82;8.07;;;16.50;99.90;;;;;;4870522;29;20057;-86
2021/06/23 05:40:15;;;;;;;7.20;6.03;;;16.50;99.90;;;;;;4876175;29;20061;-84
2021/06/23 05:42:43;;;;;;;7.30;6.60;;;16.50;99.90;;;;;;4860736;29;20060;-84
2021/06/23 05:45:11;;;;;;;8.23;7.10;;;16.60;99.90;;;;;;4875837;29;21441;-82
2021/06/23 05:47:39;;;;;;;8.20;6.93;;;16.60;99.90;;;;;;4861039;29;20068;-82
2021/06/23 05:50:08;;;;;;;13.13;7.63;;;16.50;99.90;;;;;;4875556;29;20127;-84
2021/06/23 05:52:36;;;;;;;13.52;8.02;;;16.50;99.90;;;;;;4860485;29;20061;-84
2021/06/23 05:55:05;;;;;;;7.25;6.60;;;16.50;99.90;;;;;;4877339;29;20049;-85
2021/06/23 05:57:34;;;;;;;7.05;6.35;;;16.40;99.90;;;;;;4875537;29;20052;-85
2021/06/23 06:00:04;;;;;;;8.55;6.97;;;16.50;99.90;;;;;;4875854;29;20395;-85
2021/06/23 06:02:40;;;;;;;7.78;7.07;;;16.60;99.90;;;;;;4875954;29;20049;-86
2021/06/23 06:05:08;;;;;;;9.95;7.60;;;16.60;99.90;;;;;;4860984;29;20056;-86
2021/06/23 06:07:36;;;;;;;7.97;7.28;;;16.70;99.90;;;;;;4875286;29;20056;-83
2021/06/23 06:10:07;;;;;;;11.05;8.48;;;16.70;99.90;;;;;;4875703;29;20053;-84
2021/06/23 06:12:36;;;;;;;8.05;7.32;;;16.70;99.90;;;;;;4875930;29;20064;-83
2021/06/23 06:15:06;;;;;;;17.65;10.07;;;16.70;99.90;;;;;;4876057;29;20071;-85
2021/06/23 06:17:35;;;;;;;8.38;7.22;;;16.70;99.90;;;;;;4860055;29;20060;-85
2021/06/23 06:20:13;;;;;;;8.73;7.32;;;16.70;99.90;;;;;;4845325;29;20069;-86
2021/06/23 06:22:41;;;;;;;9.35;8.45;;;16.80;99.90;;;;;;4859585;29;20109;-86
2021/06/23 06:25:09;;;;;;;9.98;8.80;;;16.80;99.90;;;;;;4837087;29;20050;-85
2021/06/23 06:27:38;;;;;;;9.32;7.53;;;16.90;99.90;;;;;;4858294;29;20057;-86
2021/06/23 06:30:06;;;;;;;12.85;9.88;;;16.80;99.90;;;;;;4859875;29;20045;-88
2021/06/23 06:32:34;;;;;;;10.18;8.13;;;16.80;99.90;;;;;;4842225;29;20064;-86
2021/06/23 06:35:03;;;;;;;13.52;10.23;;;16.90;99.90;;;;;;4859321;29;20488;-86
2021/06/23 06:37:31;;;;;;;11.18;8.60;;;17.00;99.90;;;;;;4853294;29;20041;-84
2021/06/23 06:39:59;;;;;;;11.32;9.27;;;17.10;99.90;;;;;;4875845;29;20080;-84
2021/06/23 06:42:27;;;;;;;15.18;8.40;;;17.00;99.90;;;;;;4877165;29;20049;-85
2021/06/23 06:44:56;;;;;;;10.50;8.90;;;17.00;99.90;;;;;;4848342;29;20061;-85
2021/06/23 06:47:24;;;;;;;13.68;9.43;;;17.10;99.90;;;;;;4854037;29;20060;-83
2021/06/23 06:49:52;;;;;;;12.00;8.82;;;17.10;99.90;;;;;;4839837;29;20559;-83
2021/06/23 06:52:20;;;;;;;12.88;9.73;;;17.20;99.90;;;;;;4854887;29;20065;-86
2021/06/23 06:55:21;;;;;;;14.05;9.73;;;17.30;99.90;;;;;;4868787;29;20403;-83
2021/06/23 06:57:52;;;;;;;17.08;9.48;;;17.50;99.90;;;;;;4857871;29;20050;-83
2021/06/23 07:00:21;;;;;;;11.82;8.07;;;17.70;99.90;;;;;;4887794;29;20049;-83
2021/06/23 07:02:53;;;;;;;11.27;10.18;;;18.00;99.90;;;;;;4858083;29;20057;-84
2021/06/23 07:05:22;;;;;;;;;;;18.10;99.90;;;;;;4896886;23;20057;-85
2021/06/23 07:07:50;;;;;;;6.82;6.15;;;18.30;99.90;;;;;;4874307;29;19924;-86
2021/06/23 07:10:19;;;;;;;6.75;6.05;;;18.70;99.90;;;;;;4857368;29;20053;-83
2021/06/23 07:12:47;;;;;;;7.47;6.32;;;19.00;99.90;;;;;;4876830;29;20053;-84
2021/06/23 07:15:16;;;;;;;7.95;6.35;;;19.20;99.90;;;;;;4861637;29;20057;-85
2021/06/23 07:17:44;;;;;;;4.85;4.45;;;19.10;99.90;;;;;;4870488;29;20053;-85
2021/06/23 07:20:12;;;;;;;6.85;6.13;;;19.10;99.90;;;;;;4842912;29;20601;-84
2021/06/23 07:22:40;;;;;;;8.43;7.50;;;19.00;99.90;;;;;;4856460;29;20045;-83
2021/06/23 07:25:09;;;;;;;6.40;5.28;;;19.20;99.90;;;;;;4866650;29;20285;-84
2021/06/23 07:27:37;;;;;;;5.90;4.90;;;19.50;99.90;;;;;;4862163;29;20052;-84
2021/06/23 07:30:06;;;;;;;5.75;5.18;;;19.50;99.90;;;;;;4862209;29;20630;-84
2021/06/23 07:32:41;;;;;;;5.57;5.07;;;19.90;99.90;;;;;;4876461;29;20487;-85
2021/06/23 07:38:01;;;;;;;4.38;3.97;;;19.60;99.90;;;;;;4875768;29;20052;-83
2021/06/23 07:41:12;;;;;;;6.18;4.97;;;19.30;99.90;;;;;;4896455;29;20056;-84
2021/06/23 07:43:20;;;;;;;5.40;4.93;;;19.00;99.90;;;;;;4873963;29;20048;-85
2021/06/23 07:45:52;;;;;;;4.85;4.43;;;18.70;99.90;;;;;;4917023;23;20422;-80
2021/06/23 07:48:32;;;;;;;5.70;5.07;;;18.80;99.90;;;;;;4858514;29;20070;-83
2021/06/23 07:51:10;;;;;;;8.07;4.40;;;19.20;99.90;;;;;;4842810;29;20054;-84
2021/06/23 07:54:08;;;;;;;6.20;4.97;;;19.40;99.90;;;;;;4876900;29;20057;-82
2021/06/23 08:10:12;;;;;;;5.95;5.15;;;18.90;99.90;;;;;;4859159;29;20057;-82
2021/06/23 08:15:11;;;;;;;5.63;5.13;;;18.90;99.90;;;;;;4859525;29;19928;-82
2021/06/23 08:17:39;;;;;;;4.90;4.50;;;18.80;99.90;;;;;;4859851;29;20297;-82
2021/06/23 08:20:08;;;;;;;5.55;5.05;;;18.80;99.90;;;;;;4861093;29;20054;-83
2021/06/23 08:22:43;;;;;;;5.97;4.95;;;18.80;99.90;;;;;;4857949;29;20061;-81
2021/06/23 08:25:11;;;;;;;6.32;5.32;;;18.90;99.90;;;;;;4859674;29;20056;-82
2021/06/23 08:27:40;;;;;;;5.00;4.60;;;18.90;99.90;;;;;;4859809;29;20072;-82
2021/06/23 08:30:10;;;;;;;5.97;5.35;;;18.80;99.90;;;;;;4859133;29;20049;-82
2021/06/23 08:32:39;;;;;;;5.22;4.72;;;18.90;99.90;;;;;;4858663;29;20072;-82
2021/06/23 08:35:09;;;;;;;6.07;5.22;;;18.90;99.90;;;;;;4858300;29;20080;-82
2021/06/23 08:37:37;;;;;;;5.07;4.63;;;18.90;99.90;;;;;;4867758;29;20418;-83
2021/06/23 08:40:08;;;;;;;5.97;5.43;;;18.90;99.90;;;;;;4876184;29;20053;-83
2021/06/23 08:42:37;;;;;;;;;;;18.90;99.90;;;;;;4875619;29;20037;-82
2021/06/23 08:45:07;;;;;;;11.32;5.82;;;18.90;99.90;;;;;;4844319;29;19924;-82
2021/06/23 08:47:43;;;;;;;5.53;5.03;;;18.80;99.90;;;;;;4839435;29;20054;-82
2021/06/23 08:50:16;;;;;;;7.13;6.45;;;18.90;99.90;;;;;;4839292;29;20234;-83
2021/06/23 08:52:45;;;;;;;5.88;5.22;;;19.10;99.90;;;;;;4837995;29;20057;-82
2021/06/23 08:55:19;;;;;;;6.97;5.57;;;19.40;99.90;;;;;;4840518;29;20052;-82
2021/06/23 08:57:49;;;;;;;6.93;5.13;;;19.60;99.90;;;;;;4841644;29;20050;-82
2021/06/23 09:00:20;;;;;;;6.85;5.30;;;19.80;99.90;;;;;;4949105;23;20071;-82
2021/06/23 09:02:49;;;;;;;5.22;4.65;;;20.00;99.90;;;;;;4887209;29;20533;-83
2021/06/23 09:05:18;;;;;;;10.93;5.38;;;20.40;99.90;;;;;;4898394;29;20059;-82
2021/06/23 09:08:30;;;;;;;6.05;5.43;;;20.70;99.90;;;;;;4917224;29;20048;-94
2021/06/23 09:11:00;;;;;;;6.18;5.40;;;20.70;99.90;;;;;;4914852;29;20051;-84
2021/06/23 09:13:29;;;;;;;6.63;5.90;;;20.70;99.90;;;;;;4915131;29;20047;-84
2021/06/23 09:16:03;;;;;;;5.65;5.15;;;20.90;99.90;;;;;;4898140;29;20062;-83
2021/06/23 09:18:39;;;;;;;5.60;5.10;;;21.10;99.90;;;;;;4902375;29;20530;-85
2021/06/23 09:21:14;;;;;;;7.10;6.43;;;21.20;99.90;;;;;;4863098;29;20044;-85
2021/06/23 09:23:54;;;;;;;6.55;5.93;;;21.20;99.90;;;;;;4895842;29;20053;-85
2021/06/23 09:26:36;;;;;;;5.88;5.30;;;21.20;99.90;;;;;;4878904;29;20048;-83
2021/06/23 09:29:04;;;;;;;7.60;5.38;;;21.40;99.90;;;;;;4895961;29;20650;-86
2021/06/23 09:31:55;;;;;;;12.60;8.30;;;21.50;99.90;;;;;;4879211;29;20059;-86
2021/06/23 09:34:25;;;;;;;6.80;6.20;;;21.70;99.90;;;;;;4895158;29;20055;-84
2021/06/23 09:36:54;;;;;;;7.03;6.30;;;21.90;99.90;;;;;;4901469;29;20056;-84
2021/06/23 09:39:25;;;;;;;6.78;6.18;;;22.10;99.90;;;;;;4882792;29;20130;-83
2021/06/23 09:41:58;;;;;;;8.10;6.07;;;22.20;99.90;;;;;;4913958;29;20059;-81
2021/06/23 09:44:26;;;;;;;5.50;4.22;;;22.30;99.90;;;;;;4915139;29;20078;-86
2021/06/23 09:46:54;;;;;;;5.22;4.68;;;22.10;99.90;;;;;;4881581;29;20810;-78
2021/06/23 09:49:27;;;;;;;7.43;5.85;;;22.00;99.90;;;;;;4914582;29;20048;-80
2021/06/23 09:51:58;;;;;;;6.30;5.80;;;22.00;99.90;;;;;;4896055;29;20059;-79
2021/06/23 09:54:30;;;;;;;7.57;6.05;;;22.20;99.90;;;;;;4914576;29;20048;-78
2021/06/23 09:57:04;;;;;;;6.47;5.65;;;22.20;99.90;;;;;;4881327;29;20053;-79
2021/06/23 09:59:37;;;;;;;6.45;5.82;;;22.40;99.90;;;;;;4899889;29;20048;-78
2021/06/23 10:02:20;;;;;;;6.75;5.57;;;22.30;99.90;;;;;;4895305;29;20048;-79
2021/06/23 10:04:49;;;;;;;6.07;5.57;;;22.00;99.90;;;;;;4898341;29;20060;-78
2021/06/23 10:07:41;;;;;;;6.82;6.18;;;21.80;99.90;;;;;;4913900;29;20506;-80
2021/06/23 10:10:16;;;;;;;8.00;6.80;;;21.50;99.90;;;;;;4913129;29;20048;-81
2021/06/23 10:12:46;;;;;;;6.88;5.88;;;21.70;99.90;;;;;;4914766;29;20059;-82
2021/06/23 10:15:15;;;;;;;8.00;6.60;;;21.90;99.90;;;;;;4914366;29;20490;-81
2021/06/23 10:17:43;;;;;;;7.60;6.22;;;22.10;99.90;;;;;;4910807;29;20498;-81
2021/06/23 10:20:39;;;;;;;8.80;6.20;;;22.10;99.90;;;;;;4914541;29;20052;-83
2021/06/23 10:23:07;;;;;;;5.97;5.47;;;22.20;99.90;;;;;;4913496;29;20048;-80
2021/06/23 10:25:35;;;;;;;12.73;6.95;;;22.10;99.90;;;;;;4968270;23;20061;-86
2021/06/23 10:28:04;;;;;;;5.72;5.22;;;22.10;99.90;;;;;;4878054;29;20061;-88
2021/06/23 10:30:33;;;;;;;5.68;5.03;;;22.20;99.90;;;;;;4950024;23;20513;-80
2021/06/23 10:33:01;;;;;;;6.82;6.10;;;22.20;99.90;;;;;;4875989;29;20065;-79
2021/06/23 10:35:29;;;;;;;7.70;7.00;;;22.30;99.90;;;;;;4877068;29;20526;-79
2021/06/23 10:37:58;;;;;;;5.80;5.40;;;22.40;99.90;;;;;;4890204;29;20057;-79
2021/06/23 10:40:27;;;;;;;6.20;5.30;;;22.50;99.90;;;;;;4889689;29;20414;-79
2021/06/23 10:43:23;;;;;;;7.88;6.32;;;22.60;99.90;;;;;;4877361;29;20049;-78
2021/06/23 10:45:55;;;;;;;6.65;6.13;;;22.60;99.90;;;;;;4856926;29;20057;-80
2021/06/23 10:48:23;;;;;;;10.13;6.78;;;22.60;99.90;;;;;;4946375;23;20061;-79
2021/06/23 10:50:51;;;;;;;6.07;5.18;;;22.70;99.90;;;;;;4879566;29;20076;-78
2021/06/23 10:53:36;;;;;;;6.40;5.72;;;22.80;99.90;;;;;;4881807;29;20081;-78
2021/06/23 10:56:05;;;;;;;5.55;5.13;;;22.90;99.90;;;;;;4985289;23;20068;-86
2021/06/23 10:58:35;;;;;;;5.25;4.50;;;22.90;99.90;;;;;;4878919;29;20064;-86
2021/06/23 11:01:12;;;;;;;4.78;4.38;;;22.80;99.90;;;;;;4877430;29;20049;-84
2021/06/23 11:04:03;;;;;;;5.40;4.72;;;22.70;99.90;;;;;;4878425;29;20057;-85
2021/06/23 11:06:57;;;;;;;4.95;4.43;;;22.80;99.90;;;;;;4877363;29;20807;-84
2021/06/23 11:09:27;;;;;;;6.60;5.85;;;22.70;99.90;;;;;;4876626;29;20057;-84
2021/06/23 11:11:56;;;;;;;5.15;4.65;;;22.40;99.90;;;;;;4878257;29;20510;-82
2021/06/23 11:14:28;;;;;;;4.47;4.07;;;22.10;99.90;;;;;;4878382;29;20087;-83
2021/06/23 11:16:56;;;;;;;3.97;3.78;;;21.80;99.90;;;;;;4877568;29;20426;-83
2021/06/23 11:19:38;;;;;;;3.72;3.40;;;21.60;99.90;;;;;;4859922;29;20065;-84
2021/06/23 11:22:15;;;;;;;7.72;4.13;;;21.60;99.90;;;;;;4863387;29;20286;-85
2021/06/23 11:24:43;;;;;;;4.13;3.13;;;21.60;99.90;;;;;;4877700;29;20104;-84
2021/06/23 11:27:15;;;;;;;3.85;3.47;;;21.80;99.90;;;;;;4878149;29;20139;-84
2021/06/23 11:29:43;;;;;;;5.15;4.43;;;22.00;99.90;;;;;;4878169;29;20059;-84
2021/06/23 11:32:13;;;;;;;7.30;4.57;;;22.20;99.90;;;;;;4877973;29;20065;-82
2021/06/23 11:34:53;;;;;;;4.32;3.83;;;22.40;99.90;;;;;;4893617;29;20056;-89
2021/06/23 11:37:25;;;;;;;3.75;3.42;;;22.60;99.90;;;;;;4887821;29;20130;-88
2021/06/23 11:40:11;;;;;;;4.50;4.10;;;22.60;99.90;;;;;;4879461;29;20053;-88
2021/06/23 11:42:40;;;;;;;4.22;3.83;;;22.40;99.90;;;;;;4879558;29;20045;-88
2021/06/23 11:45:09;;;;;;;4.63;4.10;;;22.30;99.90;;;;;;4877362;29;20084;-88
2021/06/23 11:47:37;;;;;;;6.93;4.68;;;22.10;99.90;;;;;;4878082;29;20068;-87
2021/06/23 11:50:06;;;;;;;4.50;4.20;;;22.00;99.90;;;;;;4862362;29;20052;-89
2021/06/23 11:52:50;;;;;;;4.65;4.35;;;21.80;99.90;;;;;;4864498;29;20402;-86
2021/06/23 11:55:24;;;;;;;5.90;4.60;;;21.70;99.90;;;;;;4859251;29;20061;-87
2021/06/23 11:57:56;;;;;;;5.47;4.75;;;21.70;99.90;;;;;;4873828;29;20514;-86
2021/06/23 12:00:25;;;;;;;4.88;4.47;;;21.80;99.90;;;;;;4873208;29;20060;-86
2021/06/23 12:02:54;;;;;;;4.38;3.92;;;21.80;99.90;;;;;;4880788;29;20060;-87
2021/06/23 12:05:23;;;;;;;4.35;4.05;;;21.90;99.90;;;;;;4895742;29;20052;-87
2021/06/23 12:07:52;;;;;;;4.45;4.00;;;22.00;99.90;;;;;;4895609;29;20053;-87
2021/06/23 12:10:26;;;;;;;4.32;4.03;;;22.00;99.90;;;;;;4891664;29;20049;-89
2021/06/23 12:13:10;;;;;;;4.18;3.75;;;22.00;99.90;;;;;;4869079;29;20068;-86
2021/06/23 12:15:40;;;;;;;6.18;4.57;;;22.00;99.90;;;;;;4891403;29;20065;-88
2021/06/23 12:18:09;;;;;;;6.40;4.30;;;21.90;99.90;;;;;;4880714;29;20056;-89
2021/06/23 12:20:40;;;;;;;5.05;4.47;;;21.90;99.90;;;;;;4876651;29;20048;-89
2021/06/23 12:23:11;;;;;;;4.47;4.07;;;22.10;99.90;;;;;;4870395;29;20494;-89
2021/06/23 12:25:46;;;;;;;6.32;4.53;;;22.40;99.90;;;;;;4861268;29;20041;-88
2021/06/23 12:28:15;;;;;;;9.45;4.57;;;22.60;99.90;;;;;;4878230;29;20057;-87
2021/06/23 12:30:45;;;;;;;7.10;5.63;;;22.80;99.90;;;;;;4876955;29;20056;-81
2021/06/23 12:33:15;;;;;;;4.88;4.07;;;22.90;99.90;;;;;;4877306;29;20060;-82
2021/06/23 12:35:46;;;;;;;3.97;3.70;;;23.10;99.90;;;;;;4876767;29;20056;-80
2021/06/23 12:38:17;;;;;;;4.22;3.90;;;23.00;99.90;;;;;;4878346;29;20084;-81
2021/06/23 12:40:45;;;;;;;;;;;22.90;99.90;;;;;;4879147;29;20069;-81
2021/06/23 12:43:14;;;;;;;12.85;4.95;;;22.80;99.90;;;;;;4878144;29;19936;-81
2021/06/23 12:45:45;;;;;;;6.60;5.20;;;22.60;99.90;;;;;;4878283;29;20045;-82
2021/06/23 12:48:13;;;;;;;4.90;4.50;;;22.50;99.90;;;;;;4878413;29;20506;-82
2021/06/23 12:50:41;;;;;;;5.43;4.93;;;22.50;99.90;;;;;;4877941;29;20049;-81
2021/06/23 12:53:09;;;;;;;5.55;5.10;;;22.50;99.90;;;;;;4877819;29;20068;-81
2021/06/23 12:55:38;;;;;;;5.53;4.80;;;22.50;99.90;;;;;;4878678;29;20053;-81
2021/06/23 12:58:06;;;;;;;4.88;4.47;;;22.40;99.90;;;;;;4878120;29;20049;-81
2021/06/23 13:00:34;;;;;;;6.63;5.32;;;22.50;99.90;;;;;;4884268;29;20092;-79
2021/06/23 13:03:11;;;;;;;5.53;4.63;;;22.80;99.90;;;;;;4896515;29;20047;-80
2021/06/23 13:05:39;;;;;;;4.15;3.75;;;22.80;99.90;;;;;;4896680;29;20521;-86
2021/06/23 13:08:10;;;;;;;4.18;3.60;;;22.60;99.90;;;;;;4890368;29;20059;-87
2021/06/23 13:10:38;;;;;;;3.92;3.55;;;22.50;99.90;;;;;;4875689;29;20045;-87
2021/06/23 13:13:06;;;;;;;4.93;4.53;;;22.70;99.90;;;;;;4877551;29;20514;-85
2021/06/23 13:15:36;;;;;;;9.77;4.10;;;23.00;99.90;;;;;;4878194;29;20068;-87
2021/06/23 13:18:04;;;;;;;5.07;4.68;;;23.20;99.90;;;;;;4877512;29;20063;-85
2021/06/23 13:20:35;;;;;;;5.68;4.13;;;23.50;99.90;;;;;;4880834;29;20062;-86
2021/06/23 13:23:03;;;;;;;4.40;4.00;;;23.60;99.90;;;;;;4876828;29;20049;-88
2021/06/23 13:25:31;;;;;;;4.75;4.30;;;23.30;99.90;;;;;;4876321;29;20045;-87
2021/06/23 13:27:59;;;;;;;8.88;4.63;;;22.90;99.90;;;;;;4878743;29;20065;-86
2021/06/23 13:30:28;;;;;;;4.25;3.85;;;22.70;99.90;;;;;;4877271;29;20617;-87
2021/06/23 13:32:56;;;;;;;5.75;3.97;;;22.70;99.90;;;;;;4876014;29;20478;-88
2021/06/23 13:35:24;;;;;;;7.50;4.07;;;22.90;99.90;;;;;;4876806;29;20060;-89
2021/06/23 13:37:54;;;;;;;4.38;3.97;;;23.00;99.90;;;;;;4888956;29;20053;-83
2021/06/23 13:40:25;;;;;;;6.97;3.85;;;23.20;99.90;;;;;;4893114;29;20061;-82
2021/06/23 13:42:54;;;;;;;3.95;3.65;;;23.30;99.90;;;;;;4876256;29;20410;-83
2021/06/23 13:45:31;;;;;;;4.18;3.88;;;23.50;99.90;;;;;;4886497;29;20048;-82
2021/06/23 13:48:03;;;;;;;5.10;4.10;;;23.60;99.90;;;;;;4893816;29;20111;-82
2021/06/23 13:50:31;;;;;;;4.25;3.83;;;23.40;99.90;;;;;;4893028;29;20207;-82
2021/06/23 13:52:59;;;;;;;4.60;4.10;;;23.20;99.90;;;;;;4877115;29;20079;-81